LGW weather

London Gatwick Airport
London, England, United Kingdom

Public forecast

Using degrees Celsius for public forecast. Weather courtesy of forecast.io.

METAR (pilot weather report)

Retrieved 2017/09/25 07:20 UTC (0 seconds ago):

EGKK 250720Z 07005KT 4500 BR FEW003 OVC049 15/14 Q1018

TAF (pilot weather forecast)

Retrieved 2017/09/25 06:20 UTC (53 minutes ago):

TAF EGKK 250453Z 2506/2612 09005KT 6000 -RA SCT045 TEMPO 2506/2508 4000 RADZ BECMG 2508/2511 9999 BECMG 2521/2524 6000 BECMG 2600/2603 2000 BR PROB40 2603/2608 0300 FG BKN001 BECMG 2608/2611 9999 NSW